createdAt,value
2022-10-14T00:01:27.064Z,100.00
2022-10-14T00:04:11.187Z,100.00
2022-10-14T00:06:38.956Z,100.00
2022-10-14T00:09:09.007Z,100.00
2022-10-14T00:11:37.412Z,100.00
2022-10-14T00:14:12.631Z,100.00
2022-10-14T00:16:43.099Z,100.00
2022-10-14T00:19:12.679Z,100.00
2022-10-14T00:21:43.328Z,100.00
2022-10-14T00:24:16.194Z,100.00
2022-10-14T00:26:44.916Z,100.00
2022-10-14T00:29:19.013Z,100.00
2022-10-14T00:31:47.961Z,100.00
2022-10-14T00:34:17.139Z,100.00
2022-10-14T00:36:45.270Z,100.00
2022-10-14T00:39:16.700Z,100.00
2022-10-14T00:41:45.574Z,100.00
2022-10-14T00:44:13.393Z,100.00
2022-10-14T00:46:44.315Z,100.00
2022-10-14T00:49:39.147Z,100.00
2022-10-14T00:52:33.488Z,100.00
2022-10-14T00:55:06.785Z,100.00
2022-10-14T00:57:35.668Z,100.00
2022-10-14T01:00:13.532Z,100.00
2022-10-14T01:02:42.195Z,100.00
2022-10-14T01:05:27.217Z,100.00
2022-10-14T01:07:59.614Z,100.00
2022-10-14T01:10:54.905Z,100.00
2022-10-14T01:13:32.604Z,100.00
2022-10-14T01:16:24.041Z,100.00
2022-10-14T01:18:57.820Z,100.00
2022-10-14T01:21:31.501Z,100.00
2022-10-14T01:24:05.696Z,100.00
2022-10-14T01:26:58.071Z,100.00
2022-10-14T01:29:44.708Z,100.00
2022-10-14T01:32:47.105Z,100.00
2022-10-14T01:35:40.303Z,100.00
2022-10-14T01:38:28.996Z,100.00
2022-10-14T01:41:15.549Z,100.00
2022-10-14T01:43:47.247Z,100.00
2022-10-14T01:46:19.141Z,100.00
2022-10-14T01:48:53.563Z,100.00
2022-10-14T01:51:28.588Z,100.00
2022-10-14T01:54:11.200Z,100.00
2022-10-14T01:56:40.809Z,100.00
2022-10-14T01:59:12.653Z,100.00
2022-10-14T02:01:40.689Z,100.00
2022-10-14T02:04:20.641Z,100.00
2022-10-14T02:07:18.640Z,100.00
2022-10-14T02:09:58.922Z,100.00
2022-10-14T02:12:57.343Z,100.00
2022-10-14T02:15:40.266Z,100.00
2022-10-14T02:18:47.045Z,100.00
2022-10-14T02:21:39.816Z,100.00
2022-10-14T02:24:18.898Z,100.00
2022-10-14T02:26:50.091Z,100.00
2022-10-14T02:29:20.187Z,100.00
2022-10-14T02:31:49.425Z,100.00
2022-10-14T02:34:22.189Z,100.00
2022-10-14T02:36:50.791Z,100.00
2022-10-14T02:39:31.295Z,100.00
2022-10-14T02:41:59.193Z,100.00
2022-10-14T02:44:27.224Z,100.00
2022-10-14T02:46:57.910Z,100.00
2022-10-14T02:49:28.940Z,100.00
2022-10-14T02:51:57.081Z,100.00
2022-10-14T02:54:24.897Z,100.00
2022-10-14T02:56:52.915Z,100.00
2022-10-14T02:59:20.714Z,100.00
2022-10-14T03:01:50.005Z,100.00
2022-10-14T03:04:17.879Z,100.00
2022-10-14T03:06:45.789Z,100.00
2022-10-14T03:09:14.207Z,100.00
2022-10-14T03:11:42.174Z,100.00
2022-10-14T03:14:12.447Z,100.00
2022-10-14T03:16:40.383Z,100.00
2022-10-14T03:19:08.245Z,100.00
2022-10-14T03:21:46.413Z,100.00
2022-10-14T03:24:19.595Z,100.00
2022-10-14T03:26:50.579Z,100.00
2022-10-14T03:29:20.537Z,100.00
2022-10-14T03:32:02.933Z,100.00
2022-10-14T03:34:36.013Z,100.00
2022-10-14T03:37:06.525Z,100.00
2022-10-14T03:39:35.405Z,100.00
2022-10-14T03:42:07.385Z,100.00
2022-10-14T03:44:41.422Z,100.00
2022-10-14T03:47:28.431Z,100.00
2022-10-14T03:49:56.525Z,100.00
2022-10-14T03:52:32.407Z,100.00
2022-10-14T03:55:15.803Z,100.00
2022-10-14T03:57:44.232Z,100.00
2022-10-14T04:00:13.662Z,100.00
2022-10-14T04:02:42.328Z,100.00
2022-10-14T04:05:20.885Z,100.00
2022-10-14T04:07:49.550Z,100.00
2022-10-14T04:10:18.037Z,100.00
2022-10-14T04:12:50.988Z,100.00
2022-10-14T04:15:31.341Z,100.00
2022-10-14T04:18:16.338Z,100.00
2022-10-14T04:20:44.617Z,100.00
2022-10-14T04:23:12.782Z,100.00
2022-10-14T04:25:41.849Z,100.00
2022-10-14T04:28:09.680Z,100.00
2022-10-14T04:30:47.862Z,100.00
2022-10-14T04:33:20.109Z,100.00
2022-10-14T04:35:48.818Z,100.00
2022-10-14T04:38:24.291Z,100.00
2022-10-14T04:40:56.184Z,100.00
2022-10-14T04:43:28.992Z,100.00
2022-10-14T04:45:58.884Z,100.00
2022-10-14T04:48:29.778Z,100.00
2022-10-14T04:50:59.008Z,100.00
2022-10-14T04:53:57.454Z,100.00
2022-10-14T04:56:46.729Z,100.00
2022-10-14T04:59:15.432Z,100.00
2022-10-14T05:01:54.567Z,100.00
2022-10-14T05:04:22.742Z,100.00
2022-10-14T05:06:50.940Z,100.00
2022-10-14T05:09:19.606Z,100.00
2022-10-14T05:11:47.977Z,100.00
2022-10-14T05:14:18.801Z,100.00
2022-10-14T05:16:48.937Z,100.00
2022-10-14T05:27:47.713Z,100.00
2022-10-14T05:30:16.651Z,100.00
2022-10-14T05:32:47.967Z,100.00
2022-10-14T05:35:33.963Z,100.00
2022-10-14T05:38:06.886Z,100.00
2022-10-14T05:40:37.188Z,100.00
2022-10-14T05:43:05.123Z,100.00
2022-10-14T05:45:34.348Z,100.00
2022-10-14T05:48:02.970Z,100.00
2022-10-14T05:50:31.199Z,100.00
2022-10-14T05:53:02.791Z,100.00
2022-10-14T05:55:36.148Z,100.00
2022-10-14T05:58:04.176Z,100.00
2022-10-14T06:00:35.069Z,100.00
2022-10-14T06:03:05.297Z,100.00
2022-10-14T06:05:36.523Z,100.00
2022-10-14T06:08:05.161Z,100.00
2022-10-14T06:10:35.593Z,100.00
2022-10-14T06:13:03.694Z,100.00
2022-10-14T06:15:32.632Z,100.00
2022-10-14T06:18:01.441Z,100.00
2022-10-14T06:20:29.715Z,100.00
2022-10-14T06:23:02.554Z,100.00
2022-10-14T06:25:33.575Z,100.00
2022-10-14T06:28:05.685Z,100.00
2022-10-14T06:30:36.078Z,100.00
2022-10-14T06:33:04.363Z,100.00
2022-10-14T06:35:33.130Z,100.00
2022-10-14T06:38:01.670Z,100.00
2022-10-14T06:40:30.008Z,100.00
2022-10-14T06:42:59.048Z,100.00
2022-10-14T06:45:27.551Z,100.00
2022-10-14T06:47:56.703Z,100.00
2022-10-14T06:50:25.657Z,100.00
2022-10-14T06:52:55.374Z,100.00
2022-10-14T06:55:23.940Z,100.00
2022-10-14T06:57:52.362Z,100.00
2022-10-14T07:00:20.767Z,100.00
2022-10-14T07:02:50.016Z,100.00
2022-10-14T07:05:18.592Z,100.00
2022-10-14T07:07:49.594Z,100.00
2022-10-14T07:10:18.166Z,100.00
2022-10-14T07:12:47.293Z,100.00
2022-10-14T07:15:16.209Z,100.00
2022-10-14T07:17:44.146Z,100.00
2022-10-14T07:20:12.612Z,100.00
2022-10-14T07:22:40.866Z,100.00
2022-10-14T07:25:09.450Z,100.00
2022-10-14T07:30:44.580Z,100.00
2022-10-14T07:33:12.924Z,100.00
2022-10-14T07:35:41.247Z,100.00
2022-10-14T07:38:09.645Z,100.00
2022-10-14T07:40:37.764Z,100.00
2022-10-14T07:43:05.991Z,100.00
2022-10-14T07:45:36.807Z,100.00
2022-10-14T07:48:05.756Z,100.00
2022-10-14T07:50:34.305Z,100.00
2022-10-14T07:53:03.622Z,100.00
2022-10-14T07:55:32.154Z,100.00
2022-10-14T07:58:00.957Z,100.00
2022-10-14T08:00:28.849Z,100.00
2022-10-14T08:02:56.715Z,100.00
2022-10-14T08:05:37.615Z,100.00
2022-10-14T08:08:07.835Z,100.00
2022-10-14T08:10:37.376Z,100.00
2022-10-14T08:13:05.965Z,100.00
2022-10-14T08:15:40.766Z,100.00
2022-10-14T08:18:10.814Z,100.00
2022-10-14T08:20:41.370Z,100.00
2022-10-14T08:23:09.754Z,100.00
2022-10-14T08:25:38.036Z,100.00
2022-10-14T08:28:06.272Z,100.00
2022-10-14T08:30:35.257Z,100.00
2022-10-14T08:33:03.587Z,100.00
2022-10-14T08:35:31.975Z,100.00
2022-10-14T08:38:02.801Z,100.00
2022-10-14T08:40:44.661Z,100.00
2022-10-14T08:43:37.904Z,100.00
2022-10-14T08:46:38.843Z,100.00
2022-10-14T08:49:22.627Z,100.00
2022-10-14T08:52:19.017Z,100.00
2022-10-14T08:54:52.189Z,100.00
2022-10-14T08:57:29.902Z,100.00
2022-10-14T08:59:58.009Z,100.00
2022-10-14T09:02:42.072Z,100.00
2022-10-14T09:05:15.848Z,100.00
2022-10-14T09:07:47.665Z,100.00
2022-10-14T09:10:25.824Z,100.00
2022-10-14T09:12:56.657Z,100.00
2022-10-14T09:15:35.020Z,100.00
2022-10-14T09:18:12.559Z,100.00
2022-10-14T09:20:42.326Z,100.00
2022-10-14T09:23:18.825Z,100.00
2022-10-14T09:25:59.567Z,100.00
2022-10-14T09:28:36.433Z,100.00
2022-10-14T09:31:07.400Z,100.00
2022-10-14T09:33:42.366Z,100.00
2022-10-14T09:36:17.577Z,100.00
2022-10-14T09:38:53.340Z,100.00
2022-10-14T09:41:28.248Z,100.00
2022-10-14T09:44:18.665Z,100.00
2022-10-14T09:46:56.414Z,100.00
2022-10-14T09:49:47.150Z,100.00
2022-10-14T09:52:24.616Z,100.00
2022-10-14T09:54:55.923Z,100.00
2022-10-14T09:57:25.424Z,100.00
2022-10-14T09:59:58.948Z,100.00
2022-10-14T10:02:42.277Z,100.00
2022-10-14T10:05:27.357Z,100.00
2022-10-14T10:08:07.178Z,99.80
2022-10-14T10:10:35.374Z,98.32
2022-10-14T10:13:03.515Z,98.62
2022-10-14T10:15:31.461Z,95.15
2022-10-14T10:17:59.647Z,94.25
2022-10-14T10:20:33.988Z,95.15
2022-10-14T10:23:29.668Z,97.32
2022-10-14T10:26:15.642Z,94.12
2022-10-14T10:28:47.026Z,92.53
2022-10-14T10:31:21.453Z,93.80
2022-10-14T10:34:02.397Z,93.07
2022-10-14T10:36:43.621Z,92.98
2022-10-14T10:39:20.199Z,93.35
2022-10-14T10:42:13.185Z,91.28
2022-10-14T10:44:59.093Z,90.85
2022-10-14T10:47:37.674Z,90.42
2022-10-14T10:50:31.795Z,89.78
2022-10-14T10:53:13.896Z,89.81
2022-10-14T10:55:54.373Z,88.51
2022-10-14T10:58:35.547Z,87.63
2022-10-14T11:01:26.381Z,86.37
2022-10-14T11:04:14.037Z,85.11
2022-10-14T11:07:07.173Z,86.05
2022-10-14T11:10:09.298Z,85.53
2022-10-14T11:13:02.458Z,84.93
2022-10-14T11:15:41.961Z,85.09
2022-10-14T11:18:29.159Z,86.58
2022-10-14T11:21:11.157Z,85.11
2022-10-14T11:23:41.770Z,83.27
2022-10-14T11:29:28.176Z,85.03
2022-10-14T11:32:07.732Z,84.99
2022-10-14T11:34:43.632Z,85.14
2022-10-14T11:37:28.488Z,83.86
2022-10-14T11:40:21.717Z,83.96
2022-10-14T11:42:56.156Z,86.68
2022-10-14T11:45:48.834Z,86.60
2022-10-14T11:48:22.820Z,87.19
2022-10-14T11:50:57.185Z,88.14
2022-10-14T11:53:43.572Z,88.85
2022-10-14T11:56:29.780Z,88.27
2022-10-14T11:59:05.752Z,87.22
2022-10-14T12:01:41.951Z,86.96
2022-10-14T12:04:28.718Z,85.41
2022-10-14T12:07:13.412Z,85.21
2022-10-14T12:09:48.837Z,84.85
2022-10-14T12:12:23.618Z,86.28
2022-10-14T12:15:00.706Z,87.92
2022-10-14T12:17:40.294Z,89.22
2022-10-14T12:20:36.322Z,89.12
2022-10-14T12:23:13.321Z,87.25
2022-10-14T12:26:02.365Z,86.55
2022-10-14T12:28:38.018Z,85.84
2022-10-14T12:31:29.506Z,86.16
2022-10-14T12:34:19.169Z,87.41
2022-10-14T12:36:50.888Z,87.94
2022-10-14T12:39:23.718Z,88.22
2022-10-14T12:42:02.048Z,87.76
2022-10-14T12:45:07.178Z,88.33
2022-10-14T12:47:37.340Z,90.61
2022-10-14T12:50:16.758Z,91.66
2022-10-14T12:52:55.447Z,90.40
2022-10-14T12:55:28.262Z,89.36
2022-10-14T12:58:02.688Z,90.63
2022-10-14T13:00:36.303Z,91.92
2022-10-14T13:03:18.297Z,92.63
2022-10-14T13:05:48.008Z,94.25
2022-10-14T13:08:16.281Z,94.29
2022-10-14T13:11:00.323Z,93.07
2022-10-14T13:13:53.853Z,91.00
2022-10-14T13:16:25.008Z,91.10
2022-10-14T13:18:54.507Z,90.55
2022-10-14T13:21:35.144Z,90.27
2022-10-14T13:24:22.556Z,89.85
2022-10-14T13:26:53.429Z,91.20
2022-10-14T13:29:34.179Z,91.74
2022-10-14T13:32:39.887Z,90.83
2022-10-14T13:36:00.883Z,93.54
2022-10-14T13:38:44.534Z,92.78
2022-10-14T13:41:18.866Z,92.92
2022-10-14T13:43:47.404Z,96.53
2022-10-14T13:46:23.389Z,97.80
2022-10-14T13:48:56.349Z,96.69
2022-10-14T13:51:36.270Z,95.20
2022-10-14T13:54:12.125Z,96.84
2022-10-14T13:56:41.145Z,97.17
2022-10-14T13:59:43.428Z,96.65
2022-10-14T14:02:25.678Z,97.19
2022-10-14T14:04:58.025Z,97.61
2022-10-14T14:08:08.489Z,97.22
2022-10-14T14:10:25.684Z,97.56
2022-10-14T14:12:54.743Z,96.83
2022-10-14T14:15:29.676Z,98.76
2022-10-14T14:17:57.935Z,99.74
2022-10-14T14:20:35.463Z,98.85
2022-10-14T14:23:05.363Z,99.78
2022-10-14T14:25:35.395Z,99.96
2022-10-14T14:28:14.402Z,99.79
2022-10-14T14:30:57.493Z,99.78
2022-10-14T14:33:31.817Z,100.00
2022-10-14T14:36:03.074Z,100.00
2022-10-14T14:38:35.766Z,99.92
2022-10-14T14:41:19.538Z,100.00
2022-10-14T14:43:57.363Z,100.00
2022-10-14T14:46:40.733Z,100.00
2022-10-14T14:49:16.152Z,100.00
2022-10-14T14:51:48.144Z,100.00
2022-10-14T14:54:19.771Z,100.00
2022-10-14T14:57:03.354Z,100.00
2022-10-14T14:59:39.721Z,100.00
2022-10-14T15:02:20.708Z,100.00
2022-10-14T15:05:10.703Z,100.00
2022-10-14T15:07:43.550Z,100.00
2022-10-14T15:10:24.898Z,100.00
2022-10-14T15:12:57.278Z,100.00
2022-10-14T15:15:28.063Z,100.00
2022-10-14T15:18:15.013Z,100.00
2022-10-14T15:20:43.654Z,100.00
2022-10-14T15:23:38.569Z,100.00
2022-10-14T15:26:34.918Z,100.00
2022-10-14T15:29:14.789Z,100.00
2022-10-14T15:31:45.955Z,100.00
2022-10-14T15:34:21.818Z,100.00
2022-10-14T15:36:52.150Z,100.00
2022-10-14T15:39:22.041Z,100.00
2022-10-14T15:41:50.239Z,100.00
2022-10-14T15:44:19.601Z,100.00
2022-10-14T15:47:07.941Z,100.00
2022-10-14T15:49:41.724Z,100.00
2022-10-14T15:52:15.949Z,100.00
2022-10-14T15:54:46.315Z,100.00
2022-10-14T15:57:16.927Z,100.00
2022-10-14T15:59:51.191Z,100.00
2022-10-14T16:02:27.918Z,100.00
2022-10-14T16:05:28.724Z,100.00
2022-10-14T16:08:36.877Z,100.00
2022-10-14T16:11:23.044Z,100.00
2022-10-14T16:13:52.599Z,100.00
2022-10-14T16:16:33.905Z,100.00
2022-10-14T16:19:07.743Z,100.00
2022-10-14T16:21:53.748Z,100.00
2022-10-14T16:24:28.107Z,100.00
2022-10-14T16:26:57.178Z,100.00
2022-10-14T16:29:26.476Z,100.00
2022-10-14T16:31:57.178Z,100.00
2022-10-14T16:34:27.105Z,100.00
2022-10-14T16:36:55.318Z,100.00
2022-10-14T16:39:24.432Z,100.00
2022-10-14T16:41:53.399Z,100.00
2022-10-14T16:44:27.915Z,100.00
2022-10-14T16:47:17.755Z,100.00
2022-10-14T16:49:49.743Z,100.00
2022-10-14T16:52:22.998Z,100.00
2022-10-14T16:54:58.642Z,100.00
2022-10-14T16:57:31.897Z,100.00
2022-10-14T17:00:02.419Z,100.00
2022-10-14T17:02:33.100Z,100.00
2022-10-14T17:05:02.303Z,100.00
2022-10-14T17:07:30.723Z,100.00
2022-10-14T17:10:03.940Z,100.00
2022-10-14T17:12:32.964Z,100.00
2022-10-14T17:15:01.724Z,100.00
2022-10-14T17:17:30.203Z,100.00
2022-10-14T17:19:59.526Z,100.00
2022-10-14T17:22:28.625Z,100.00
2022-10-14T17:24:56.955Z,100.00
2022-10-14T17:27:26.262Z,100.00
2022-10-14T17:29:54.486Z,100.00
2022-10-14T17:32:22.797Z,100.00
2022-10-14T17:34:53.542Z,100.00
2022-10-14T17:37:22.398Z,100.00
2022-10-14T17:39:50.549Z,100.00
2022-10-14T17:42:20.277Z,100.00
2022-10-14T17:44:49.023Z,100.00
2022-10-14T17:47:17.758Z,100.00
2022-10-14T17:49:45.927Z,100.00
2022-10-14T17:52:21.642Z,100.00
2022-10-14T17:54:58.867Z,100.00
2022-10-14T17:57:31.702Z,100.00
2022-10-14T18:00:03.132Z,100.00
2022-10-14T18:02:42.670Z,100.00
2022-10-14T18:05:27.836Z,100.00
2022-10-14T18:08:06.841Z,100.00
2022-10-14T18:10:55.964Z,100.00
2022-10-14T18:13:30.908Z,100.00
2022-10-14T18:16:49.029Z,100.00
2022-10-14T18:23:09.676Z,100.00
2022-10-14T18:25:38.771Z,100.00
2022-10-14T18:28:13.370Z,100.00
2022-10-14T18:30:47.186Z,100.00
2022-10-14T18:33:17.664Z,100.00
2022-10-14T18:35:48.763Z,100.00
2022-10-14T18:38:27.981Z,100.00
2022-10-14T18:41:00.971Z,100.00
2022-10-14T18:43:33.571Z,100.00
2022-10-14T18:46:14.072Z,100.00
2022-10-14T18:48:48.613Z,100.00
2022-10-14T18:51:22.475Z,100.00
2022-10-14T18:54:00.335Z,100.00
2022-10-14T18:56:40.708Z,100.00
2022-10-14T18:59:15.646Z,100.00
2022-10-14T19:01:49.077Z,100.00
2022-10-14T19:04:20.742Z,100.00
2022-10-14T19:06:50.235Z,100.00
2022-10-14T19:09:30.351Z,100.00
2022-10-14T19:12:22.929Z,100.00
2022-10-14T19:14:51.815Z,100.00
2022-10-14T19:17:26.691Z,100.00
2022-10-14T19:20:00.744Z,100.00
2022-10-14T19:22:32.529Z,100.00
2022-10-14T19:25:01.240Z,100.00
2022-10-14T19:27:29.932Z,100.00
2022-10-14T19:29:59.058Z,100.00
2022-10-14T19:32:27.573Z,100.00
2022-10-14T19:34:58.674Z,100.00
2022-10-14T19:37:29.428Z,100.00
2022-10-14T19:39:59.472Z,100.00
2022-10-14T19:42:28.641Z,100.00
2022-10-14T19:48:51.247Z,100.00
2022-10-14T19:51:21.704Z,100.00
2022-10-14T19:53:51.611Z,100.00
2022-10-14T19:56:22.436Z,100.00
2022-10-14T19:58:54.090Z,100.00
2022-10-14T20:01:27.964Z,100.00
2022-10-14T20:04:00.786Z,100.00
2022-10-14T20:06:34.553Z,100.00
2022-10-14T20:09:07.495Z,100.00
2022-10-14T20:11:40.859Z,100.00
2022-10-14T20:14:11.255Z,100.00
2022-10-14T20:16:40.681Z,100.00
2022-10-14T20:19:09.423Z,100.00
2022-10-14T20:21:38.507Z,100.00
2022-10-14T20:24:07.142Z,100.00
2022-10-14T20:26:37.895Z,100.00
2022-10-14T20:29:07.755Z,100.00
2022-10-14T20:31:36.140Z,100.00
2022-10-14T20:34:10.146Z,100.00
2022-10-14T20:36:41.150Z,100.00
2022-10-14T20:39:11.051Z,100.00
2022-10-14T20:41:39.569Z,100.00
2022-10-14T20:44:08.420Z,100.00
2022-10-14T20:46:37.783Z,100.00
2022-10-14T20:49:07.000Z,100.00
2022-10-14T20:51:36.368Z,100.00
2022-10-14T20:54:08.414Z,100.00
2022-10-14T20:56:40.426Z,100.00
2022-10-14T20:59:12.178Z,100.00
2022-10-14T21:01:40.744Z,100.00
2022-10-14T21:04:09.154Z,100.00
2022-10-14T21:06:39.019Z,100.00
2022-10-14T21:09:08.615Z,100.00
2022-10-14T21:11:40.342Z,100.00
2022-10-14T21:14:08.995Z,100.00
2022-10-14T21:16:37.328Z,100.00
2022-10-14T21:19:09.760Z,100.00
2022-10-14T21:21:40.228Z,100.00
2022-10-14T21:24:14.541Z,100.00
2022-10-14T21:26:48.024Z,100.00
2022-10-14T21:29:16.496Z,100.00
2022-10-14T21:31:44.790Z,100.00
2022-10-14T21:34:15.067Z,100.00
2022-10-14T21:36:43.427Z,100.00
2022-10-14T21:39:15.239Z,100.00
2022-10-14T21:41:44.417Z,100.00
2022-10-14T21:44:20.046Z,100.00
2022-10-14T21:46:48.989Z,100.00
2022-10-14T21:49:19.645Z,100.00
2022-10-14T21:51:48.810Z,100.00
2022-10-14T21:54:17.178Z,100.00
2022-10-14T21:56:46.159Z,100.00
2022-10-14T21:59:14.867Z,100.00
2022-10-14T22:01:43.645Z,100.00
2022-10-14T22:04:11.791Z,100.00
2022-10-14T22:06:41.081Z,100.00
2022-10-14T22:09:11.548Z,100.00
2022-10-14T22:11:42.191Z,100.00
2022-10-14T22:14:17.649Z,100.00
2022-10-14T22:16:47.783Z,100.00
2022-10-14T22:19:16.144Z,100.00
2022-10-14T22:21:46.508Z,100.00
2022-10-14T22:24:14.992Z,100.00
2022-10-14T22:26:42.975Z,100.00
2022-10-14T22:29:16.160Z,100.00
2022-10-14T22:31:45.565Z,100.00
2022-10-14T22:34:16.871Z,100.00
2022-10-14T22:36:46.327Z,100.00
2022-10-14T22:39:17.738Z,100.00
2022-10-14T22:41:46.819Z,100.00
2022-10-14T22:44:17.649Z,100.00
2022-10-14T22:46:47.768Z,100.00
2022-10-14T22:49:17.448Z,100.00
2022-10-14T22:51:47.153Z,100.00
2022-10-14T22:54:15.934Z,100.00
2022-10-14T22:56:44.972Z,100.00
2022-10-14T22:59:15.495Z,100.00
2022-10-14T23:01:44.040Z,100.00
2022-10-14T23:04:12.783Z,100.00
2022-10-14T23:06:44.993Z,100.00
2022-10-14T23:09:13.086Z,100.00
2022-10-14T23:11:42.038Z,100.00
2022-10-14T23:14:10.356Z,100.00
2022-10-14T23:16:39.609Z,100.00
2022-10-14T23:19:09.267Z,100.00
2022-10-14T23:21:38.713Z,100.00
2022-10-14T23:24:10.695Z,100.00
2022-10-14T23:26:39.168Z,100.00
2022-10-14T23:29:11.750Z,100.00
2022-10-14T23:31:41.466Z,100.00
2022-10-14T23:34:14.364Z,100.00
2022-10-14T23:36:43.237Z,100.00
2022-10-14T23:39:11.560Z,100.00
2022-10-14T23:41:39.789Z,100.00
2022-10-14T23:44:08.016Z,100.00
2022-10-14T23:46:36.443Z,100.00
2022-10-14T23:49:21.549Z,100.00
2022-10-14T23:51:52.654Z,100.00
2022-10-14T23:54:21.193Z,100.00
2022-10-14T23:56:49.555Z,100.00
2022-10-14T23:59:17.720Z,100.00
